Seaexpressii — HO4619 — position and weather

sailwx.info

Track history (hours):
 
Tides and Currents Weather Stations Pressure Air Temp Water Temp Dewpoint Dewpoint Depression Visibility Wind Speed Wind Dir Waves Ship Positions

Seaexpressii

Last reported at 2017-Sep-24 19:00 UTC. Time now 2017-Sep-24 19:19 UTC.
Position N 26°05' W 080°04'.

Length 37 m; draft 2.2 m.

Type: Ship (hazmat cat C). MMSI: 356449000.

Date/timePositionNaut miles runAvg speedWind from/ knotsBaromVisibWave heightAir tempDewpointWater temp
2017-Sep-24 19:00N 26°05' W 080°04'5 9.0
2017-Sep-24 18:30N 26°02' W 079°59'5 9.7
2017-Sep-24 18:00N 25°59' W 079°55'510.1
2017-Sep-24 17:30N 25°57' W 079°50'5 9.8
2017-Sep-24 17:00N 25°55' W 079°45'510.2
2017-Sep-24 16:30N 25°53' W 079°40'510.2
2017-Sep-24 16:00N 25°50' W 079°35'  
2017-Sep-22 02:00N 26°04' W 080°08'0 0.0
2017-Sep-22 01:30N 26°04' W 080°08'0 0.0
2017-Sep-22 01:00N 26°04' W 080°08'0 0.0
2017-Sep-22 00:30N 26°04' W 080°08'0 0.0
2017-Sep-22 00:00N 26°04' W 080°08'0 0.0
2017-Sep-21 23:30N 26°04' W 080°08'0 0.0
2017-Sep-21 23:00N 26°04' W 080°08'1 1.9
2017-Sep-21 22:31N 26°04' W 080°07'3 5.9
2017-Sep-21 22:00N 26°04' W 080°04'611.2
2017-Sep-21 21:30N 26°02' W 079°58'611.7
2017-Sep-21 21:00N 25°59' W 079°52'612.2
2017-Sep-21 20:30N 25°56' W 079°46'612.0
2017-Sep-21 20:00N 25°54' W 079°40'612.2
2017-Sep-21 19:29N 25°50' W 079°34'25 1.3
2017-Sep-20 23:52N 26°15' W 079°33'410.5
2017-Sep-20 23:30N 26°14' W 079°37'510.7
2017-Sep-20 23:00N 26°12' W 079°42'510.9
2017-Sep-20 22:30N 26°10' W 079°48'611.7
2017-Sep-20 22:00N 26°09' W 079°54'611.3
2017-Sep-20 21:30N 26°07' W 080°00'510.5
2017-Sep-20 21:00N 26°06' W 080°06'3 5.4
2017-Sep-20 20:30N 26°04' W 080°08'0 0.1
2017-Sep-20 20:00N 26°04' W 080°08'0 0.0
2017-Sep-20 19:30N 26°04' W 080°08'0 0.0
2017-Sep-20 19:00N 26°04' W 080°08'0 0.0
2017-Sep-20 18:30N 26°04' W 080°08'0 0.0
2017-Sep-20 18:00N 26°04' W 080°08'0 0.0
2017-Sep-20 17:30N 26°04' W 080°08'0 0.0
2017-Sep-20 17:00N 26°04' W 080°08'0 0.0
2017-Sep-20 16:30N 26°04' W 080°08'0 0.0
2017-Sep-20 16:00N 26°04' W 080°08'0 0.0
2017-Sep-20 15:30N 26°04' W 080°08'0 0.7
2017-Sep-20 15:00N 26°04' W 080°07'7 7.1
2017-Sep-20 14:00N 26°03' W 079°60'5 9.5
2017-Sep-20 13:30N 26°02' W 079°54'5 9.7
2017-Sep-20 13:00N 26°01' W 079°49'5 9.9
2017-Sep-20 12:30N 25°59' W 079°44'510.1
2017-Sep-20 12:00N 25°58' W 079°39'  
2017-Sep-17 07:40N 25°51' W 079°37'1 7.3
2017-Sep-17 07:29N 25°52' W 079°38'4 7.1
2017-Sep-17 06:52N 25°54' W 079°42'3 7.1
2017-Sep-17 06:25N 25°55' W 079°45'5 6.9
2017-Sep-17 05:38N 25°58' W 079°51'1 6.9
2017-Sep-17 05:30N 25°59' W 079°52'4 6.9
2017-Sep-17 04:58N 26°01' W 079°55'5 6.8
2017-Sep-17 04:18N 26°03' W 079°60'2 7.1
2017-Sep-17 04:00N 26°04' W 080°02'4 8.9
2017-Sep-17 03:30N 26°06' W 080°06'3 5.2
2017-Sep-17 03:01N 26°04' W 080°08'0 0.1
2017-Sep-17 02:30N 26°04' W 080°08'0 0.0
2017-Sep-17 02:00N 26°04' W 080°08'0 0.0
2017-Sep-17 01:30N 26°04' W 080°08'0 0.0
2017-Sep-17 01:00N 26°04' W 080°08'0 0.0
2017-Sep-17 00:30N 26°04' W 080°08'0 0.0
2017-Sep-17 00:00N 26°04' W 080°08'0 0.0
2017-Sep-16 23:30N 26°04' W 080°08'0 0.0
2017-Sep-16 23:00N 26°04' W 080°08'0 0.0
2017-Sep-16 22:30N 26°04' W 080°08'0 0.0
2017-Sep-16 22:00N 26°04' W 080°08'0 0.0
2017-Sep-16 21:30N 26°04' W 080°08'0 0.0
2017-Sep-16 21:00N 26°04' W 080°08'0 0.0
2017-Sep-16 20:30N 26°04' W 080°08'0 0.0
2017-Sep-16 20:00N 26°04' W 080°08'0 0.0
2017-Sep-16 19:30N 26°04' W 080°08'0 0.0
2017-Sep-16 19:00N 26°04' W 080°08'0 0.0
2017-Sep-16 18:30N 26°04' W 080°08'0 0.0
2017-Sep-16 18:00N 26°04' W 080°08'0 0.0
2017-Sep-16 17:30N 26°04' W 080°08'0 0.0
2017-Sep-16 17:00N 26°04' W 080°08'0 0.0
2017-Sep-16 16:30N 26°04' W 080°08'0 0.0
2017-Sep-16 16:00N 26°04' W 080°08'0 0.0
2017-Sep-16 15:30N 26°04' W 080°08'0 0.0
2017-Sep-16 15:00N 26°04' W 080°08'0 0.3
2017-Sep-16 14:30N 26°04' W 080°08'3 5.7
2017-Sep-16 14:00N 26°06' W 080°05'510.3
2017-Sep-16 13:30N 26°04' W 079°60'510.5
2017-Sep-16 13:00N 26°02' W 079°54'510.2
2017-Sep-16 12:30N 26°01' W 079°49'510.4
2017-Sep-16 12:00N 25°59' W 079°43'610.3
2017-Sep-16 11:27N 25°58' W 079°37'  
Track history (hours):
 
Tides and Currents Weather Stations Pressure Air Temp Water Temp Dewpoint Dewpoint Depression Visibility Wind Speed Wind Dir Waves Ship Positions

Seaexpressii

Last reported at 2017-Sep-24 19:00 UTC. Time now 2017-Sep-24 19:19 UTC.
Position N 26°05' W 080°04'.

Length 37 m; draft 2.2 m.

Type: Ship (hazmat cat C). MMSI: 356449000.

Date/timePositionNaut miles runAvg speedWind from/ knotsBaromVisibWave heightAir tempDewpointWater temp
2017-Sep-24 19:00N 26°05' W 080°04'5 9.0
2017-Sep-24 18:30N 26°02' W 079°59'5 9.7
2017-Sep-24 18:00N 25°59' W 079°55'510.1
2017-Sep-24 17:30N 25°57' W 079°50'5 9.8
2017-Sep-24 17:00N 25°55' W 079°45'510.2
2017-Sep-24 16:30N 25°53' W 079°40'510.2
2017-Sep-24 16:00N 25°50' W 079°35'  
2017-Sep-22 02:00N 26°04' W 080°08'0 0.0
2017-Sep-22 01:30N 26°04' W 080°08'0 0.0
2017-Sep-22 01:00N 26°04' W 080°08'0 0.0
2017-Sep-22 00:30N 26°04' W 080°08'0 0.0
2017-Sep-22 00:00N 26°04' W 080°08'0 0.0
2017-Sep-21 23:30N 26°04' W 080°08'0 0.0
2017-Sep-21 23:00N 26°04' W 080°08'1 1.9
2017-Sep-21 22:31N 26°04' W 080°07'3 5.9
2017-Sep-21 22:00N 26°04' W 080°04'611.2
2017-Sep-21 21:30N 26°02' W 079°58'611.7
2017-Sep-21 21:00N 25°59' W 079°52'612.2
2017-Sep-21 20:30N 25°56' W 079°46'612.0
2017-Sep-21 20:00N 25°54' W 079°40'612.2
2017-Sep-21 19:29N 25°50' W 079°34'25 1.3
2017-Sep-20 23:52N 26°15' W 079°33'410.5
2017-Sep-20 23:30N 26°14' W 079°37'510.7
2017-Sep-20 23:00N 26°12' W 079°42'510.9
2017-Sep-20 22:30N 26°10' W 079°48'611.7
2017-Sep-20 22:00N 26°09' W 079°54'611.3
2017-Sep-20 21:30N 26°07' W 080°00'510.5
2017-Sep-20 21:00N 26°06' W 080°06'3 5.4
2017-Sep-20 20:30N 26°04' W 080°08'0 0.1
2017-Sep-20 20:00N 26°04' W 080°08'0 0.0
2017-Sep-20 19:30N 26°04' W 080°08'0 0.0
2017-Sep-20 19:00N 26°04' W 080°08'0 0.0
2017-Sep-20 18:30N 26°04' W 080°08'0 0.0
2017-Sep-20 18:00N 26°04' W 080°08'0 0.0
2017-Sep-20 17:30N 26°04' W 080°08'0 0.0
2017-Sep-20 17:00N 26°04' W 080°08'0 0.0
2017-Sep-20 16:30N 26°04' W 080°08'0 0.0
2017-Sep-20 16:00N 26°04' W 080°08'0 0.0
2017-Sep-20 15:30N 26°04' W 080°08'0 0.7
2017-Sep-20 15:00N 26°04' W 080°07'7 7.1
2017-Sep-20 14:00N 26°03' W 079°60'5 9.5
2017-Sep-20 13:30N 26°02' W 079°54'5 9.7
2017-Sep-20 13:00N 26°01' W 079°49'5 9.9
2017-Sep-20 12:30N 25°59' W 079°44'510.1
2017-Sep-20 12:00N 25°58' W 079°39'  
2017-Sep-17 07:40N 25°51' W 079°37'1 7.3
2017-Sep-17 07:29N 25°52' W 079°38'4 7.1
2017-Sep-17 06:52N 25°54' W 079°42'3 7.1
2017-Sep-17 06:25N 25°55' W 079°45'5 6.9
2017-Sep-17 05:38N 25°58' W 079°51'1 6.9
2017-Sep-17 05:30N 25°59' W 079°52'4 6.9
2017-Sep-17 04:58N 26°01' W 079°55'5 6.8
2017-Sep-17 04:18N 26°03' W 079°60'2 7.1
2017-Sep-17 04:00N 26°04' W 080°02'4 8.9
2017-Sep-17 03:30N 26°06' W 080°06'3 5.2
2017-Sep-17 03:01N 26°04' W 080°08'0 0.1
2017-Sep-17 02:30N 26°04' W 080°08'0 0.0
2017-Sep-17 02:00N 26°04' W 080°08'0 0.0
2017-Sep-17 01:30N 26°04' W 080°08'0 0.0
2017-Sep-17 01:00N 26°04' W 080°08'0 0.0
2017-Sep-17 00:30N 26°04' W 080°08'0 0.0
2017-Sep-17 00:00N 26°04' W 080°08'0 0.0
2017-Sep-16 23:30N 26°04' W 080°08'0 0.0
2017-Sep-16 23:00N 26°04' W 080°08'0 0.0
2017-Sep-16 22:30N 26°04' W 080°08'0 0.0
2017-Sep-16 22:00N 26°04' W 080°08'0 0.0
2017-Sep-16 21:30N 26°04' W 080°08'0 0.0
2017-Sep-16 21:00N 26°04' W 080°08'0 0.0
2017-Sep-16 20:30N 26°04' W 080°08'0 0.0
2017-Sep-16 20:00N 26°04' W 080°08'0 0.0
2017-Sep-16 19:30N 26°04' W 080°08'0 0.0
2017-Sep-16 19:00N 26°04' W 080°08'0 0.0
2017-Sep-16 18:30N 26°04' W 080°08'0 0.0
2017-Sep-16 18:00N 26°04' W 080°08'0 0.0
2017-Sep-16 17:30N 26°04' W 080°08'0 0.0
2017-Sep-16 17:00N 26°04' W 080°08'0 0.0
2017-Sep-16 16:30N 26°04' W 080°08'0 0.0
2017-Sep-16 16:00N 26°04' W 080°08'0 0.0
2017-Sep-16 15:30N 26°04' W 080°08'0 0.0
2017-Sep-16 15:00N 26°04' W 080°08'0 0.3
2017-Sep-16 14:30N 26°04' W 080°08'3 5.7
2017-Sep-16 14:00N 26°06' W 080°05'510.3
2017-Sep-16 13:30N 26°04' W 079°60'510.5
2017-Sep-16 13:00N 26°02' W 079°54'510.2
2017-Sep-16 12:30N 26°01' W 079°49'510.4
2017-Sep-16 12:00N 25°59' W 079°43'610.3
2017-Sep-16 11:27N 25°58' W 079°37'  

Dump ship's entire track history